YFC93 EYVI-EYVI
Flight info
| Callsign | YFC93 |
|---|---|
| Flight time | 0h 4m |
| Altitude | 9000 |
| Route | ELEKA DCT BILDI |
| Aircraft | DA42/L-SBDGRY/S |
Departure
| Time | 2026-05-05 12:50 |
|---|---|
| Airport | Vilnius International Airport (EYVI) |
Arrival
| Time | 2026-05-05 12:55 |
|---|---|
| Airport | Vilnius International Airport (EYVI) |
| Time | Latitude | Longitude | Altitude | Speed | Heading |
|---|---|---|---|---|---|
| 2026-05-05 12:37 | 54.63343 | 25.28106 | 613 ft | 0 kts | 287° |
| 2026-05-05 12:46 | 54.63343 | 25.28105 | 613 ft | 0 kts | 302° |
| 2026-05-05 12:46 | 54.63349 | 25.28110 | 623 ft | 5 kts | 84° |
| 2026-05-05 12:46 | 54.63356 | 25.28196 | 614 ft | 9 kts | 105° |
| 2026-05-05 12:46 | 54.63418 | 25.28263 | 616 ft | 15 kts | 24° |
| 2026-05-05 12:47 | 54.63513 | 25.28330 | 618 ft | 17 kts | 22° |
| 2026-05-05 12:47 | 54.63633 | 25.28356 | 621 ft | 12 kts | 348° |
| 2026-05-05 12:47 | 54.63642 | 25.28352 | 624 ft | 0 kts | 347° |
| 2026-05-05 12:48 | 54.63643 | 25.28349 | 623 ft | 3 kts | 285° |
| 2026-05-05 12:48 | 54.63579 | 25.28368 | 620 ft | 17 kts | 169° |
| 2026-05-05 12:49 | 54.63489 | 25.28404 | 618 ft | 11 kts | 158° |
| 2026-05-05 12:49 | 54.63480 | 25.28409 | 618 ft | 1 kts | 167° |
| 2026-05-05 12:49 | 54.63453 | 25.28427 | 619 ft | 8 kts | 142° |
| 2026-05-05 12:49 | 54.63417 | 25.28537 | 618 ft | 13 kts | 138° |
| 2026-05-05 12:50 | 54.63302 | 25.28499 | 614 ft | 33 kts | 202° |
| 2026-05-05 12:50 | 54.62931 | 25.28276 | 712 ft | 67 kts | 203° |
| 2026-05-05 12:50 | 54.62485 | 25.28019 | 1008 ft | 65 kts | 202° |
| 2026-05-05 12:50 | 54.62019 | 25.28053 | 1256 ft | 91 kts | 147° |
| 2026-05-05 12:51 | 54.62000 | 25.29233 | 1369 ft | 114 kts | 48° |
| 2026-05-05 12:51 | 54.62602 | 25.30174 | 1579 ft | 118 kts | 28° |
| 2026-05-05 12:51 | 54.63380 | 25.30698 | 1689 ft | 129 kts | 14° |
| 2026-05-05 12:51 | 54.64243 | 25.31203 | 1742 ft | 131 kts | 9° |
| 2026-05-05 12:52 | 54.65128 | 25.31654 | 1779 ft | 138 kts | 8° |
| 2026-05-05 12:52 | 54.66025 | 25.32053 | 1850 ft | 119 kts | 6° |
| 2026-05-05 12:52 | 54.66815 | 25.32345 | 1764 ft | 114 kts | 7° |
| 2026-05-05 12:52 | 54.67574 | 25.32691 | 1620 ft | 110 kts | 8° |
| 2026-05-05 12:53 | 54.68302 | 25.33016 | 1482 ft | 100 kts | 2° |
| 2026-05-05 12:53 | 54.68374 | 25.32416 | 1226 ft | 85 kts | 217° |
| 2026-05-05 12:53 | 54.67850 | 25.31870 | 992 ft | 84 kts | 220° |
| 2026-05-05 12:53 | 54.67327 | 25.31474 | 873 ft | 81 kts | 214° |
| 2026-05-05 12:54 | 54.66249 | 25.30630 | 928 ft | 96 kts | 207° |
| 2026-05-05 12:54 | 54.65658 | 25.30183 | 835 ft | 83 kts | 207° |
| 2026-05-05 12:54 | 54.65181 | 25.29846 | 754 ft | 64 kts | 204° |
| 2026-05-05 12:55 | 54.64815 | 25.29580 | 707 ft | 51 kts | 208° |
| 2026-05-05 12:55 | 54.64503 | 25.29353 | 663 ft | 48 kts | 207° |
| 2026-05-05 12:55 | 54.64205 | 25.29129 | 638 ft | 43 kts | 204° |
| 2026-05-05 12:55 | 54.63942 | 25.28942 | 628 ft | 43 kts | 204° |
| 2026-05-05 12:56 | 54.63550 | 25.28696 | 774 ft | 64 kts | 203° |
| 2026-05-05 12:56 | 54.63087 | 25.28476 | 1027 ft | 74 kts | 199° |
| 2026-05-05 12:56 | 54.62554 | 25.28596 | 1353 ft | 91 kts | 148° |
| 2026-05-05 12:56 | 54.62473 | 25.29589 | 1518 ft | 86 kts | 36° |
| 2026-05-05 12:57 | 54.62969 | 25.30113 | 1535 ft | 84 kts | 17° |
| 2026-05-05 12:57 | 54.63514 | 25.30456 | 1550 ft | 88 kts | 8° |
| 2026-05-05 12:57 | 54.64132 | 25.30656 | 1336 ft | 86 kts | 352° |
| 2026-05-05 12:57 | 54.64696 | 25.30584 | 1119 ft | 73 kts | 322° |
| 2026-05-05 12:58 | 54.64741 | 25.29850 | 853 ft | 67 kts | 252° |
| 2026-05-05 12:58 | 54.64396 | 25.29306 | 695 ft | 69 kts | 218° |
| 2026-05-05 12:58 | 54.64036 | 25.29017 | 707 ft | 55 kts | 201° |
| 2026-05-05 12:58 | 54.63572 | 25.28865 | 870 ft | 74 kts | 204° |
| 2026-05-05 12:59 | 54.63254 | 25.29477 | 1016 ft | 103 kts | 65° |
| 2026-05-05 12:59 | 54.63820 | 25.30122 | 1120 ft | 105 kts | 15° |
| 2026-05-05 12:59 | 54.64540 | 25.30459 | 1124 ft | 107 kts | 345° |
| 2026-05-05 13:00 | 54.64226 | 25.29166 | 661 ft | 81 kts | 213° |
| 2026-05-05 13:00 | 54.63743 | 25.28823 | 626 ft | 69 kts | 214° |
| 2026-05-05 13:01 | 54.62970 | 25.28260 | 606 ft | 28 kts | 231° |
| 2026-05-05 13:01 | 54.62977 | 25.28093 | 605 ft | 15 kts | 301° |
| 2026-05-05 13:01 | 54.63054 | 25.28007 | 606 ft | 16 kts | 21° |
| 2026-05-05 13:01 | 54.63163 | 25.28087 | 609 ft | 18 kts | 20° |
| 2026-05-05 13:02 | 54.63262 | 25.28138 | 611 ft | 8 kts | 281° |
| 2026-05-05 13:02 | 54.63293 | 25.28109 | 612 ft | 7 kts | 14° |
| 2026-05-05 13:02 | 54.63331 | 25.28100 | 613 ft | 0 kts | 294° |